ENA - Kenai Muni

Pirep is a free, collaborative database of all public and private airports located within the United States. All pilots are welcome to contribute, edit, and improve any airport they have local knowledge about, no registration required.
Are you familiar with this airport? Help out other pilots by adding your local knowledge.
Uploaded photos will be licensed under a CC BY-SA 4.0 license. Please only upload photos you have the rights to use.
Tags
Public
Undocu­mented
METAR / TAF
Webcam
Edit Tags
Food
Camping
Lodging
Car Rental
Bicycles
Swimming
Golfing
Fishing
Hot Springs
Museum
Flying Clubs
Airpark
Upcoming Events
No upcoming events. Is anything happening here soon?
*
*
*

Where exactly on/near the airport is this event taking place?

Is there a webpage with more information for this event?

Who should be contacted for more information?

What is this event all about?

Repeat every
Description
Transient Parking
Fuel Location
Landing & Tie-down Fees
Crew Car Availability
Flying Clubs
WiFi Access
Airport Statistics
Location: Kenai, AK
Elevation: 99ft
Sectional: Anchorage
Activation date: May 1947
Fuel: 100LL, A (prices)
Runway 02L/20R: 7,855ft
Runway 02W/20W: 4,600ft
Runway 02R/20L: 1,980ft
Access: Open to the public
Current Weather — VFR
  • Weather data is strictly informational and not for flight planning purposes.
  • METAR
    2024-05-24 16:53:00 AKDT
    Ceiling Wind Temperature Dewpoint Weather Visbility
    4,700ft 340° @ 9kt 48°F 42°F N/A 10SM
    Clouds: Few @ 1,500ft, Broken @ 4,700ft, Overcast @ 5,500ft
    Raw: PAEN 250053Z 34009KT 10SM FEW015 BKN047 OVC055 09/06 A2965 RMK AO2 SLP041 T00890056
  • TAF
    2024-05-24 16:00:00 AKDT – 2024-05-24 19:00:00 AKDT
    Ceiling Wind Weather Visbility
    2,500ft 40° @ 5kt Showers in vicinity 6SM
    Clouds: Scattered @ 1,500ft, Broken @ 2,500ft
    Raw: PAEN 242329Z 2500/2524 04005KT P6SM VCSH SCT015 BKN025 FM250300 27007KT 6SM -SHRA BR FEW010 BKN025 FM251200 36004KT P6SM OVC015 FM252000 36008KT P6SM SCT035 BKN050
  • TAF
    2024-05-24 19:00:00 AKDT – 2024-05-25 04:00:00 AKDT
    Ceiling Wind Weather Visbility
    2,500ft 270° @ 7kt Light rain showers, mist 6SM
    Clouds: Few @ 1,000ft, Broken @ 2,500ft
    Raw: PAEN 242329Z 2500/2524 04005KT P6SM VCSH SCT015 BKN025 FM250300 27007KT 6SM -SHRA BR FEW010 BKN025 FM251200 36004KT P6SM OVC015 FM252000 36008KT P6SM SCT035 BKN050
  • TAF
    2024-05-25 04:00:00 AKDT – 2024-05-25 12:00:00 AKDT
    Ceiling Wind Weather Visbility
    1,500ft 360° @ 4kt N/A 6SM
    Clouds: Overcast @ 1,500ft
    Raw: PAEN 242329Z 2500/2524 04005KT P6SM VCSH SCT015 BKN025 FM250300 27007KT 6SM -SHRA BR FEW010 BKN025 FM251200 36004KT P6SM OVC015 FM252000 36008KT P6SM SCT035 BKN050
  • TAF
    2024-05-25 12:00:00 AKDT – 2024-05-25 16:00:00 AKDT
    Ceiling Wind Weather Visbility
    5,000ft 360° @ 8kt N/A 6SM
    Clouds: Scattered @ 3,500ft, Broken @ 5,000ft
    Raw: PAEN 242329Z 2500/2524 04005KT P6SM VCSH SCT015 BKN025 FM250300 27007KT 6SM -SHRA BR FEW010 BKN025 FM251200 36004KT P6SM OVC015 FM252000 36008KT P6SM SCT035 BKN050
Click/tap to add an annotation marker to the map
Direct links to live image URLs will be displayed inline on this page. URLs to separate webpages will be linked to.
URL:
Direct links to live image URLs will be displayed inline on this page. URLs to separate webpages will be linked to.
URL:
Remarks
  • Tsnt & coml tie down slips avbl end of water canal.
  • Tsnt prkg s trml ramp; hel prkg n trml ramp. lndg fee ovr 4000 lb.
  • Birds 10 nm radius spring-fall.
  • Ptns of trml ramp, twy g & h not vsb fm atct.
  • Spb ctld by kenai atct durg ops hrs. when kenai atct clsd wx avbl fm kenai atis or kenai fss. noise abatement proc in efct - amgr 907-283-7951.
Comments
Leave a comment What was your experience like at this airport?